sensor_id;sensor_type;location;lat;lon;timestamp;temperature;humidity
20231;DHT22;10274;49.022;9.338;2024-03-02T00:00:31;7.20;1.00
20231;DHT22;10274;49.022;9.338;2024-03-02T00:02:57;7.20;1.00
20231;DHT22;10274;49.022;9.338;2024-03-02T00:05:24;7.30;1.00
20231;DHT22;10274;49.022;9.338;2024-03-02T00:07:53;7.40;1.00
20231;DHT22;10274;49.022;9.338;2024-03-02T00:10:23;7.30;1.00
20231;DHT22;10274;49.022;9.338;2024-03-02T00:12:54;7.40;1.00
20231;DHT22;10274;49.022;9.338;2024-03-02T00:15:42;7.30;1.00
20231;DHT22;10274;49.022;9.338;2024-03-02T00:18:14;7.40;1.00
20231;DHT22;10274;49.022;9.338;2024-03-02T00:20:42;7.30;1.00
20231;DHT22;10274;49.022;9.338;2024-03-02T00:23:10;7.20;1.00
20231;DHT22;10274;49.022;9.338;2024-03-02T00:25:43;7.20;1.00
20231;DHT22;10274;49.022;9.338;2024-03-02T00:28:19;7.20;1.00
20231;DHT22;10274;49.022;9.338;2024-03-02T00:30:57;6.90;1.00
20231;DHT22;10274;49.022;9.338;2024-03-02T00:33:26;6.90;1.00
20231;DHT22;10274;49.022;9.338;2024-03-02T00:35:54;7.00;1.00
20231;DHT22;10274;49.022;9.338;2024-03-02T00:38:21;7.10;1.00
20231;DHT22;10274;49.022;9.338;2024-03-02T00:40:50;7.20;1.00
20231;DHT22;10274;49.022;9.338;2024-03-02T00:43:41;7.30;1.00
20231;DHT22;10274;49.022;9.338;2024-03-02T00:46:08;7.30;1.00
20231;DHT22;10274;49.022;9.338;2024-03-02T00:48:34;7.30;1.00
20231;DHT22;10274;49.022;9.338;2024-03-02T00:51:02;7.20;1.00
20231;DHT22;10274;49.022;9.338;2024-03-02T00:53:30;7.20;1.00
20231;DHT22;10274;49.022;9.338;2024-03-02T00:55:59;7.10;1.00
20231;DHT22;10274;49.022;9.338;2024-03-02T00:58:27;6.80;1.00
20231;DHT22;10274;49.022;9.338;2024-03-02T01:00:53;6.90;1.00
20231;DHT22;10274;49.022;9.338;2024-03-02T01:03:21;6.90;1.00
20231;DHT22;10274;49.022;9.338;2024-03-02T01:05:47;6.80;1.00
20231;DHT22;10274;49.022;9.338;2024-03-02T01:08:14;6.80;1.00
20231;DHT22;10274;49.022;9.338;2024-03-02T01:10:41;6.40;1.00
20231;DHT22;10274;49.022;9.338;2024-03-02T01:13:09;6.50;1.00
20231;DHT22;10274;49.022;9.338;2024-03-02T01:15:36;6.60;1.00
20231;DHT22;10274;49.022;9.338;2024-03-02T01:18:03;6.50;1.00
20231;DHT22;10274;49.022;9.338;2024-03-02T01:20:30;6.70;1.00
20231;DHT22;10274;49.022;9.338;2024-03-02T01:22:57;6.80;1.00
20231;DHT22;10274;49.022;9.338;2024-03-02T01:25:23;6.80;1.00
20231;DHT22;10274;49.022;9.338;2024-03-02T01:27:50;6.80;1.00
20231;DHT22;10274;49.022;9.338;2024-03-02T01:30:18;6.90;1.00
20231;DHT22;10274;49.022;9.338;2024-03-02T01:32:45;6.90;1.00
20231;DHT22;10274;49.022;9.338;2024-03-02T01:35:12;7.00;1.00
20231;DHT22;10274;49.022;9.338;2024-03-02T01:37:38;7.00;1.00
20231;DHT22;10274;49.022;9.338;2024-03-02T01:40:06;7.10;1.00
20231;DHT22;10274;49.022;9.338;2024-03-02T01:42:35;7.10;1.00
20231;DHT22;10274;49.022;9.338;2024-03-02T01:45:03;7.20;1.00
20231;DHT22;10274;49.022;9.338;2024-03-02T01:47:31;7.20;1.00
20231;DHT22;10274;49.022;9.338;2024-03-02T01:49:59;7.20;1.00
20231;DHT22;10274;49.022;9.338;2024-03-02T01:52:27;7.30;1.00
20231;DHT22;10274;49.022;9.338;2024-03-02T01:54:53;7.20;1.00
20231;DHT22;10274;49.022;9.338;2024-03-02T01:57:20;7.20;1.00
20231;DHT22;10274;49.022;9.338;2024-03-02T01:59:47;7.20;1.00
20231;DHT22;10274;49.022;9.338;2024-03-02T02:02:14;7.20;1.00
20231;DHT22;10274;49.022;9.338;2024-03-02T02:04:42;7.10;1.00
20231;DHT22;10274;49.022;9.338;2024-03-02T02:07:09;7.10;1.00
20231;DHT22;10274;49.022;9.338;2024-03-02T02:09:36;6.90;1.00
20231;DHT22;10274;49.022;9.338;2024-03-02T02:12:04;6.90;1.00
20231;DHT22;10274;49.022;9.338;2024-03-02T02:14:32;6.80;1.00
20231;DHT22;10274;49.022;9.338;2024-03-02T02:16:58;6.70;1.00
20231;DHT22;10274;49.022;9.338;2024-03-02T02:19:25;6.80;1.00
20231;DHT22;10274;49.022;9.338;2024-03-02T02:21:54;6.80;1.00
20231;DHT22;10274;49.022;9.338;2024-03-02T02:24:20;6.90;1.00
20231;DHT22;10274;49.022;9.338;2024-03-02T02:26:47;6.70;1.00
20231;DHT22;10274;49.022;9.338;2024-03-02T02:29:14;6.70;1.00
20231;DHT22;10274;49.022;9.338;2024-03-02T02:31:41;6.70;1.00
20231;DHT22;10274;49.022;9.338;2024-03-02T02:34:08;6.70;1.00
20231;DHT22;10274;49.022;9.338;2024-03-02T02:36:37;6.70;1.00
20231;DHT22;10274;49.022;9.338;2024-03-02T02:39:07;6.50;1.00
20231;DHT22;10274;49.022;9.338;2024-03-02T02:41:36;6.50;1.00
20231;DHT22;10274;49.022;9.338;2024-03-02T02:44:03;6.40;1.00
20231;DHT22;10274;49.022;9.338;2024-03-02T02:46:29;6.20;1.00
20231;DHT22;10274;49.022;9.338;2024-03-02T02:48:56;6.00;1.00
20231;DHT22;10274;49.022;9.338;2024-03-02T02:51:23;5.60;1.00
20231;DHT22;10274;49.022;9.338;2024-03-02T02:53:50;5.30;1.00
20231;DHT22;10274;49.022;9.338;2024-03-02T02:56:18;5.10;1.00
20231;DHT22;10274;49.022;9.338;2024-03-02T02:58:45;5.10;1.00
20231;DHT22;10274;49.022;9.338;2024-03-02T03:01:12;5.20;1.00
20231;DHT22;10274;49.022;9.338;2024-03-02T03:03:39;5.30;1.00
20231;DHT22;10274;49.022;9.338;2024-03-02T03:06:06;5.40;1.00
20231;DHT22;10274;49.022;9.338;2024-03-02T03:08:33;5.60;1.00
20231;DHT22;10274;49.022;9.338;2024-03-02T03:11:00;5.60;1.00
20231;DHT22;10274;49.022;9.338;2024-03-02T03:13:28;5.80;1.00
20231;DHT22;10274;49.022;9.338;2024-03-02T03:15:54;5.70;1.00
20231;DHT22;10274;49.022;9.338;2024-03-02T03:18:21;5.60;1.00
20231;DHT22;10274;49.022;9.338;2024-03-02T03:20:48;5.70;1.00
20231;DHT22;10274;49.022;9.338;2024-03-02T03:23:15;5.90;1.00
20231;DHT22;10274;49.022;9.338;2024-03-02T03:25:42;5.50;1.00
20231;DHT22;10274;49.022;9.338;2024-03-02T03:28:09;5.70;1.00
20231;DHT22;10274;49.022;9.338;2024-03-02T03:30:38;5.70;1.00
20231;DHT22;10274;49.022;9.338;2024-03-02T03:33:05;5.90;1.00
20231;DHT22;10274;49.022;9.338;2024-03-02T03:35:32;5.90;1.00
20231;DHT22;10274;49.022;9.338;2024-03-02T03:37:59;5.90;1.00
20231;DHT22;10274;49.022;9.338;2024-03-02T03:40:26;5.70;1.00
20231;DHT22;10274;49.022;9.338;2024-03-02T03:42:53;5.60;1.00
20231;DHT22;10274;49.022;9.338;2024-03-02T03:45:21;5.80;1.00
20231;DHT22;10274;49.022;9.338;2024-03-02T03:47:49;5.30;1.00
20231;DHT22;10274;49.022;9.338;2024-03-02T03:50:16;5.20;1.00
20231;DHT22;10274;49.022;9.338;2024-03-02T03:52:43;5.00;1.00
20231;DHT22;10274;49.022;9.338;2024-03-02T03:55:09;4.90;1.00
20231;DHT22;10274;49.022;9.338;2024-03-02T03:57:36;4.70;1.00
20231;DHT22;10274;49.022;9.338;2024-03-02T04:00:02;4.70;1.00
20231;DHT22;10274;49.022;9.338;2024-03-02T04:02:30;4.50;1.00
20231;DHT22;10274;49.022;9.338;2024-03-02T04:04:58;4.50;1.00
20231;DHT22;10274;49.022;9.338;2024-03-02T04:07:24;4.60;1.00
20231;DHT22;10274;49.022;9.338;2024-03-02T04:09:51;4.70;1.00
20231;DHT22;10274;49.022;9.338;2024-03-02T04:12:17;4.80;1.00
20231;DHT22;10274;49.022;9.338;2024-03-02T04:14:43;4.80;1.00
20231;DHT22;10274;49.022;9.338;2024-03-02T04:17:10;4.60;1.00
20231;DHT22;10274;49.022;9.338;2024-03-02T04:19:37;4.50;1.00
20231;DHT22;10274;49.022;9.338;2024-03-02T04:22:05;4.50;1.00
20231;DHT22;10274;49.022;9.338;2024-03-02T04:24:32;4.80;1.00
20231;DHT22;10274;49.022;9.338;2024-03-02T04:26:58;4.40;1.00
20231;DHT22;10274;49.022;9.338;2024-03-02T04:29:25;4.50;1.00
20231;DHT22;10274;49.022;9.338;2024-03-02T04:31:52;4.60;1.00
20231;DHT22;10274;49.022;9.338;2024-03-02T04:34:26;4.90;1.00
20231;DHT22;10274;49.022;9.338;2024-03-02T04:36:53;4.70;1.00
20231;DHT22;10274;49.022;9.338;2024-03-02T04:39:20;4.50;1.00
20231;DHT22;10274;49.022;9.338;2024-03-02T04:41:46;4.50;1.00
20231;DHT22;10274;49.022;9.338;2024-03-02T04:44:13;4.60;1.00
20231;DHT22;10274;49.022;9.338;2024-03-02T04:46:40;4.40;1.00
20231;DHT22;10274;49.022;9.338;2024-03-02T04:49:06;4.70;1.00
20231;DHT22;10274;49.022;9.338;2024-03-02T04:51:34;4.60;1.00
20231;DHT22;10274;49.022;9.338;2024-03-02T04:54:01;4.40;1.00
20231;DHT22;10274;49.022;9.338;2024-03-02T04:56:28;4.40;1.00
20231;DHT22;10274;49.022;9.338;2024-03-02T04:59:10;4.40;1.00
20231;DHT22;10274;49.022;9.338;2024-03-02T05:01:36;4.60;1.00
20231;DHT22;10274;49.022;9.338;2024-03-02T05:04:03;5.10;1.00
20231;DHT22;10274;49.022;9.338;2024-03-02T05:06:30;4.80;1.00
20231;DHT22;10274;49.022;9.338;2024-03-02T05:08:58;5.00;1.00
20231;DHT22;10274;49.022;9.338;2024-03-02T05:11:25;4.60;1.00
20231;DHT22;10274;49.022;9.338;2024-03-02T05:14:09;4.70;1.00
20231;DHT22;10274;49.022;9.338;2024-03-02T05:16:36;4.80;1.00
20231;DHT22;10274;49.022;9.338;2024-03-02T05:19:04;4.80;1.00
20231;DHT22;10274;49.022;9.338;2024-03-02T05:21:32;4.80;1.00
20231;DHT22;10274;49.022;9.338;2024-03-02T05:24:00;4.80;1.00
20231;DHT22;10274;49.022;9.338;2024-03-02T05:26:27;4.60;1.00
20231;DHT22;10274;49.022;9.338;2024-03-02T05:28:54;4.80;1.00
20231;DHT22;10274;49.022;9.338;2024-03-02T05:31:21;4.80;1.00
20231;DHT22;10274;49.022;9.338;2024-03-02T05:33:47;5.10;1.00
20231;DHT22;10274;49.022;9.338;2024-03-02T05:36:14;4.70;1.00
20231;DHT22;10274;49.022;9.338;2024-03-02T05:38:41;5.20;1.00
20231;DHT22;10274;49.022;9.338;2024-03-02T05:41:09;5.30;1.00
20231;DHT22;10274;49.022;9.338;2024-03-02T05:43:37;5.40;1.00
20231;DHT22;10274;49.022;9.338;2024-03-02T05:46:04;5.20;1.00
20231;DHT22;10274;49.022;9.338;2024-03-02T05:48:30;5.10;1.00
20231;DHT22;10274;49.022;9.338;2024-03-02T05:50:57;4.80;1.00
20231;DHT22;10274;49.022;9.338;2024-03-02T05:53:24;4.40;1.00
20231;DHT22;10274;49.022;9.338;2024-03-02T05:55:50;4.40;1.00
20231;DHT22;10274;49.022;9.338;2024-03-02T05:58:22;4.20;1.00
20231;DHT22;10274;49.022;9.338;2024-03-02T06:00:59;4.20;1.00
20231;DHT22;10274;49.022;9.338;2024-03-02T06:03:26;4.20;1.00
20231;DHT22;10274;49.022;9.338;2024-03-02T06:05:54;4.10;1.00
20231;DHT22;10274;49.022;9.338;2024-03-02T06:08:20;3.90;1.00
20231;DHT22;10274;49.022;9.338;2024-03-02T06:10:47;4.00;1.00
20231;DHT22;10274;49.022;9.338;2024-03-02T06:13:14;3.80;1.00
20231;DHT22;10274;49.022;9.338;2024-03-02T06:15:42;3.70;1.00
20231;DHT22;10274;49.022;9.338;2024-03-02T06:18:09;3.70;1.00
20231;DHT22;10274;49.022;9.338;2024-03-02T06:20:35;3.60;1.00
20231;DHT22;10274;49.022;9.338;2024-03-02T06:23:02;3.70;1.00
20231;DHT22;10274;49.022;9.338;2024-03-02T06:25:29;3.50;1.00
20231;DHT22;10274;49.022;9.338;2024-03-02T06:27:56;3.60;1.00
20231;DHT22;10274;49.022;9.338;2024-03-02T06:30:23;3.70;1.00
20231;DHT22;10274;49.022;9.338;2024-03-02T06:32:51;3.60;1.00
20231;DHT22;10274;49.022;9.338;2024-03-02T06:35:17;3.60;1.00
20231;DHT22;10274;49.022;9.338;2024-03-02T06:37:44;3.60;1.00
20231;DHT22;10274;49.022;9.338;2024-03-02T06:40:11;3.60;1.00
20231;DHT22;10274;49.022;9.338;2024-03-02T06:42:37;3.60;1.00
20231;DHT22;10274;49.022;9.338;2024-03-02T06:45:05;3.40;1.00
20231;DHT22;10274;49.022;9.338;2024-03-02T06:47:32;3.50;1.00
20231;DHT22;10274;49.022;9.338;2024-03-02T06:50:00;3.50;1.00
20231;DHT22;10274;49.022;9.338;2024-03-02T06:52:27;3.70;1.00
20231;DHT22;10274;49.022;9.338;2024-03-02T06:54:54;3.70;1.00
20231;DHT22;10274;49.022;9.338;2024-03-02T06:57:20;4.10;1.00
20231;DHT22;10274;49.022;9.338;2024-03-02T06:59:47;3.90;1.00
20231;DHT22;10274;49.022;9.338;2024-03-02T07:02:15;3.80;1.00
20231;DHT22;10274;49.022;9.338;2024-03-02T07:04:42;3.90;1.00
20231;DHT22;10274;49.022;9.338;2024-03-02T07:07:11;4.20;1.00
20231;DHT22;10274;49.022;9.338;2024-03-02T07:09:38;4.40;1.00
20231;DHT22;10274;49.022;9.338;2024-03-02T07:12:05;4.50;1.00
20231;DHT22;10274;49.022;9.338;2024-03-02T07:14:32;4.60;1.00
20231;DHT22;10274;49.022;9.338;2024-03-02T07:17:25;4.70;1.00
20231;DHT22;10274;49.022;9.338;2024-03-02T07:19:51;5.00;1.00
20231;DHT22;10274;49.022;9.338;2024-03-02T07:22:19;5.20;1.00
20231;DHT22;10274;49.022;9.338;2024-03-02T07:24:46;5.40;1.00
20231;DHT22;10274;49.022;9.338;2024-03-02T07:27:13;5.50;1.00
20231;DHT22;10274;49.022;9.338;2024-03-02T07:29:40;5.70;1.00
20231;DHT22;10274;49.022;9.338;2024-03-02T07:32:07;6.00;1.00
20231;DHT22;10274;49.022;9.338;2024-03-02T07:34:34;6.20;1.00
20231;DHT22;10274;49.022;9.338;2024-03-02T07:37:01;6.30;1.00
20231;DHT22;10274;49.022;9.338;2024-03-02T07:39:30;6.30;1.00
20231;DHT22;10274;49.022;9.338;2024-03-02T07:41:56;6.50;1.00
20231;DHT22;10274;49.022;9.338;2024-03-02T07:44:23;6.50;1.00
20231;DHT22;10274;49.022;9.338;2024-03-02T07:46:50;6.80;1.00
20231;DHT22;10274;49.022;9.338;2024-03-02T07:49:18;6.90;1.00
20231;DHT22;10274;49.022;9.338;2024-03-02T07:51:45;7.10;1.00
20231;DHT22;10274;49.022;9.338;2024-03-02T07:54:11;7.30;1.00
20231;DHT22;10274;49.022;9.338;2024-03-02T07:56:39;7.40;1.00
20231;DHT22;10274;49.022;9.338;2024-03-02T07:59:06;7.60;1.00
20231;DHT22;10274;49.022;9.338;2024-03-02T08:01:33;7.80;1.00
20231;DHT22;10274;49.022;9.338;2024-03-02T08:04:01;7.90;1.00
20231;DHT22;10274;49.022;9.338;2024-03-02T08:06:29;8.10;1.00
20231;DHT22;10274;49.022;9.338;2024-03-02T08:08:57;8.40;1.00
20231;DHT22;10274;49.022;9.338;2024-03-02T08:11:24;8.60;1.00
20231;DHT22;10274;49.022;9.338;2024-03-02T08:13:53;8.70;1.00
20231;DHT22;10274;49.022;9.338;2024-03-02T08:16:20;8.70;1.00
20231;DHT22;10274;49.022;9.338;2024-03-02T08:18:47;8.70;1.00
20231;DHT22;10274;49.022;9.338;2024-03-02T08:21:14;8.80;1.00
20231;DHT22;10274;49.022;9.338;2024-03-02T08:23:42;8.80;1.00
20231;DHT22;10274;49.022;9.338;2024-03-02T08:26:09;8.70;1.00
20231;DHT22;10274;49.022;9.338;2024-03-02T08:28:36;8.60;1.00
20231;DHT22;10274;49.022;9.338;2024-03-02T08:31:05;8.70;1.00
20231;DHT22;10274;49.022;9.338;2024-03-02T08:33:32;8.80;1.00
20231;DHT22;10274;49.022;9.338;2024-03-02T08:35:59;8.80;1.00
20231;DHT22;10274;49.022;9.338;2024-03-02T08:38:26;8.90;1.00
20231;DHT22;10274;49.022;9.338;2024-03-02T08:40:53;9.10;1.00
20231;DHT22;10274;49.022;9.338;2024-03-02T08:43:20;9.20;1.00
20231;DHT22;10274;49.022;9.338;2024-03-02T08:45:48;9.20;1.00
20231;DHT22;10274;49.022;9.338;2024-03-02T08:48:17;9.20;1.00
20231;DHT22;10274;49.022;9.338;2024-03-02T08:50:45;9.40;1.00
20231;DHT22;10274;49.022;9.338;2024-03-02T08:53:12;9.50;1.00
20231;DHT22;10274;49.022;9.338;2024-03-02T08:55:38;9.50;1.00
20231;DHT22;10274;49.022;9.338;2024-03-02T08:58:06;9.60;1.00
20231;DHT22;10274;49.022;9.338;2024-03-02T09:00:32;9.50;1.00
20231;DHT22;10274;49.022;9.338;2024-03-02T09:02:59;9.70;1.00
20231;DHT22;10274;49.022;9.338;2024-03-02T09:05:27;10.10;1.00
20231;DHT22;10274;49.022;9.338;2024-03-02T09:07:54;10.40;1.00
20231;DHT22;10274;49.022;9.338;2024-03-02T09:10:20;10.80;1.00
20231;DHT22;10274;49.022;9.338;2024-03-02T09:12:47;11.70;1.00
20231;DHT22;10274;49.022;9.338;2024-03-02T09:15:14;11.60;1.00
20231;DHT22;10274;49.022;9.338;2024-03-02T09:17:41;11.70;1.00
20231;DHT22;10274;49.022;9.338;2024-03-02T09:20:09;12.10;1.00
20231;DHT22;10274;49.022;9.338;2024-03-02T09:22:37;12.70;1.00
20231;DHT22;10274;49.022;9.338;2024-03-02T09:25:04;13.50;1.00
20231;DHT22;10274;49.022;9.338;2024-03-02T09:27:32;14.50;1.00
20231;DHT22;10274;49.022;9.338;2024-03-02T09:29:59;15.10;1.00
20231;DHT22;10274;49.022;9.338;2024-03-02T09:32:26;15.30;1.00
20231;DHT22;10274;49.022;9.338;2024-03-02T09:34:52;14.80;1.00
20231;DHT22;10274;49.022;9.338;2024-03-02T09:37:21;15.00;1.00
20231;DHT22;10274;49.022;9.338;2024-03-02T09:39:49;15.50;1.00
20231;DHT22;10274;49.022;9.338;2024-03-02T09:42:17;14.80;1.00
20231;DHT22;10274;49.022;9.338;2024-03-02T09:44:44;15.20;1.00
20231;DHT22;10274;49.022;9.338;2024-03-02T09:47:11;15.10;1.00
20231;DHT22;10274;49.022;9.338;2024-03-02T09:49:38;14.90;1.00
20231;DHT22;10274;49.022;9.338;2024-03-02T09:52:05;15.00;1.00
20231;DHT22;10274;49.022;9.338;2024-03-02T09:54:32;15.30;1.00
20231;DHT22;10274;49.022;9.338;2024-03-02T09:57:02;15.00;1.00
20231;DHT22;10274;49.022;9.338;2024-03-02T09:59:28;15.60;1.00
20231;DHT22;10274;49.022;9.338;2024-03-02T10:01:56;15.90;1.00
20231;DHT22;10274;49.022;9.338;2024-03-02T10:04:25;15.70;1.00
20231;DHT22;10274;49.022;9.338;2024-03-02T10:07:09;15.80;1.00
20231;DHT22;10274;49.022;9.338;2024-03-02T10:09:37;15.90;1.00
20231;DHT22;10274;49.022;9.338;2024-03-02T10:12:07;15.90;1.00
20231;DHT22;10274;49.022;9.338;2024-03-02T10:14:34;16.80;1.00
20231;DHT22;10274;49.022;9.338;2024-03-02T10:17:04;17.00;1.00
20231;DHT22;10274;49.022;9.338;2024-03-02T10:19:33;17.30;1.00
20231;DHT22;10274;49.022;9.338;2024-03-02T10:22:01;17.00;1.00
20231;DHT22;10274;49.022;9.338;2024-03-02T10:24:35;16.80;1.00
20231;DHT22;10274;49.022;9.338;2024-03-02T10:27:08;17.00;1.00
20231;DHT22;10274;49.022;9.338;2024-03-02T10:29:39;17.50;1.00
20231;DHT22;10274;49.022;9.338;2024-03-02T10:32:08;16.70;1.00
20231;DHT22;10274;49.022;9.338;2024-03-02T10:34:36;16.20;1.00
20231;DHT22;10274;49.022;9.338;2024-03-02T10:37:03;16.50;1.00
20231;DHT22;10274;49.022;9.338;2024-03-02T10:39:31;16.40;1.00
20231;DHT22;10274;49.022;9.338;2024-03-02T10:42:02;16.80;1.00
20231;DHT22;10274;49.022;9.338;2024-03-02T10:44:31;16.90;1.00
20231;DHT22;10274;49.022;9.338;2024-03-02T10:47:00;16.50;1.00
20231;DHT22;10274;49.022;9.338;2024-03-02T10:49:29;16.30;1.00
20231;DHT22;10274;49.022;9.338;2024-03-02T10:51:56;16.80;1.00
20231;DHT22;10274;49.022;9.338;2024-03-02T10:54:22;16.80;1.00
20231;DHT22;10274;49.022;9.338;2024-03-02T10:56:53;17.40;1.00
20231;DHT22;10274;49.022;9.338;2024-03-02T10:59:26;17.30;1.00
20231;DHT22;10274;49.022;9.338;2024-03-02T11:01:56;17.00;1.00
20231;DHT22;10274;49.022;9.338;2024-03-02T11:04:24;16.70;1.00
20231;DHT22;10274;49.022;9.338;2024-03-02T11:06:52;16.40;1.00
20231;DHT22;10274;49.022;9.338;2024-03-02T11:09:22;16.80;1.00
20231;DHT22;10274;49.022;9.338;2024-03-02T11:11:56;16.70;1.00
20231;DHT22;10274;49.022;9.338;2024-03-02T11:14:24;17.20;1.00
20231;DHT22;10274;49.022;9.338;2024-03-02T11:16:51;17.60;1.00
20231;DHT22;10274;49.022;9.338;2024-03-02T11:19:21;16.80;1.00
20231;DHT22;10274;49.022;9.338;2024-03-02T11:21:48;16.30;1.00
20231;DHT22;10274;49.022;9.338;2024-03-02T11:24:31;16.40;1.00
20231;DHT22;10274;49.022;9.338;2024-03-02T11:26:59;16.80;1.00
20231;DHT22;10274;49.022;9.338;2024-03-02T11:29:45;17.00;1.00
20231;DHT22;10274;49.022;9.338;2024-03-02T11:32:16;16.90;1.00
20231;DHT22;10274;49.022;9.338;2024-03-02T11:34:46;16.50;1.00
20231;DHT22;10274;49.022;9.338;2024-03-02T11:37:13;17.10;1.00
20231;DHT22;10274;49.022;9.338;2024-03-02T11:39:41;17.10;1.00
20231;DHT22;10274;49.022;9.338;2024-03-02T11:42:08;17.80;1.00
20231;DHT22;10274;49.022;9.338;2024-03-02T11:44:36;17.40;1.00
20231;DHT22;10274;49.022;9.338;2024-03-02T11:47:06;17.30;1.00
20231;DHT22;10274;49.022;9.338;2024-03-02T11:49:37;17.70;1.00
20231;DHT22;10274;49.022;9.338;2024-03-02T11:52:07;18.00;1.00
20231;DHT22;10274;49.022;9.338;2024-03-02T11:54:35;18.90;1.00
20231;DHT22;10274;49.022;9.338;2024-03-02T11:57:05;17.70;1.00
20231;DHT22;10274;49.022;9.338;2024-03-02T11:59:32;18.40;1.00
20231;DHT22;10274;49.022;9.338;2024-03-02T12:01:59;18.10;1.00
20231;DHT22;10274;49.022;9.338;2024-03-02T12:04:26;18.40;1.00
20231;DHT22;10274;49.022;9.338;2024-03-02T12:06:55;18.00;1.00
20231;DHT22;10274;49.022;9.338;2024-03-02T12:09:23;18.20;1.00
20231;DHT22;10274;49.022;9.338;2024-03-02T12:12:01;18.40;1.00
20231;DHT22;10274;49.022;9.338;2024-03-02T12:14:29;18.20;1.00
20231;DHT22;10274;49.022;9.338;2024-03-02T12:16:55;17.80;1.00
20231;DHT22;10274;49.022;9.338;2024-03-02T12:19:24;18.80;1.00
20231;DHT22;10274;49.022;9.338;2024-03-02T12:21:50;19.00;1.00
20231;DHT22;10274;49.022;9.338;2024-03-02T12:24:18;19.20;1.00
20231;DHT22;10274;49.022;9.338;2024-03-02T12:26:46;18.00;1.00
20231;DHT22;10274;49.022;9.338;2024-03-02T12:29:14;17.90;1.00
20231;DHT22;10274;49.022;9.338;2024-03-02T12:31:42;18.10;1.00
20231;DHT22;10274;49.022;9.338;2024-03-02T12:34:09;18.50;1.00
20231;DHT22;10274;49.022;9.338;2024-03-02T12:36:37;18.20;1.00
20231;DHT22;10274;49.022;9.338;2024-03-02T12:39:04;17.80;1.00
20231;DHT22;10274;49.022;9.338;2024-03-02T12:41:31;17.60;1.00
20231;DHT22;10274;49.022;9.338;2024-03-02T12:43:59;17.70;1.00
20231;DHT22;10274;49.022;9.338;2024-03-02T12:46:26;17.50;1.00
20231;DHT22;10274;49.022;9.338;2024-03-02T12:48:53;17.90;1.00
20231;DHT22;10274;49.022;9.338;2024-03-02T12:51:20;18.00;1.00
20231;DHT22;10274;49.022;9.338;2024-03-02T12:53:53;17.70;1.00
20231;DHT22;10274;49.022;9.338;2024-03-02T12:56:20;17.90;1.00
20231;DHT22;10274;49.022;9.338;2024-03-02T12:58:46;18.30;1.00
20231;DHT22;10274;49.022;9.338;2024-03-02T13:01:15;17.80;1.00
20231;DHT22;10274;49.022;9.338;2024-03-02T13:03:44;18.40;1.00
20231;DHT22;10274;49.022;9.338;2024-03-02T13:06:11;17.90;1.00
20231;DHT22;10274;49.022;9.338;2024-03-02T13:08:38;18.20;1.00
20231;DHT22;10274;49.022;9.338;2024-03-02T13:11:05;18.80;1.00
20231;DHT22;10274;49.022;9.338;2024-03-02T13:13:32;18.90;1.00
20231;DHT22;10274;49.022;9.338;2024-03-02T13:16:00;19.20;1.00
20231;DHT22;10274;49.022;9.338;2024-03-02T13:18:30;19.10;1.00
20231;DHT22;10274;49.022;9.338;2024-03-02T13:20:56;19.10;1.00
20231;DHT22;10274;49.022;9.338;2024-03-02T13:23:23;19.50;1.00
20231;DHT22;10274;49.022;9.338;2024-03-02T13:25:50;19.20;1.00
20231;DHT22;10274;49.022;9.338;2024-03-02T13:28:17;19.40;1.00
20231;DHT22;10274;49.022;9.338;2024-03-02T13:30:44;19.50;1.00
20231;DHT22;10274;49.022;9.338;2024-03-02T13:33:11;19.40;1.00
20231;DHT22;10274;49.022;9.338;2024-03-02T13:35:39;19.50;1.00
20231;DHT22;10274;49.022;9.338;2024-03-02T13:38:05;20.40;1.00
20231;DHT22;10274;49.022;9.338;2024-03-02T13:40:32;20.00;1.00
20231;DHT22;10274;49.022;9.338;2024-03-02T13:43:01;19.30;1.00
20231;DHT22;10274;49.022;9.338;2024-03-02T13:45:28;19.70;1.00
20231;DHT22;10274;49.022;9.338;2024-03-02T13:47:54;21.90;1.00
20231;DHT22;10274;49.022;9.338;2024-03-02T13:50:21;22.30;1.00
20231;DHT22;10274;49.022;9.338;2024-03-02T13:52:49;22.80;1.00
20231;DHT22;10274;49.022;9.338;2024-03-02T13:55:16;20.80;1.00
20231;DHT22;10274;49.022;9.338;2024-03-02T13:57:43;20.80;1.00
20231;DHT22;10274;49.022;9.338;2024-03-02T14:00:10;20.60;1.00
20231;DHT22;10274;49.022;9.338;2024-03-02T14:02:37;20.90;1.00
20231;DHT22;10274;49.022;9.338;2024-03-02T14:05:05;19.80;1.00
20231;DHT22;10274;49.022;9.338;2024-03-02T14:07:33;20.50;1.00
20231;DHT22;10274;49.022;9.338;2024-03-02T14:10:01;20.50;1.00
20231;DHT22;10274;49.022;9.338;2024-03-02T14:12:27;19.70;1.00
20231;DHT22;10274;49.022;9.338;2024-03-02T14:14:54;20.30;1.00
20231;DHT22;10274;49.022;9.338;2024-03-02T14:17:23;20.40;1.00
20231;DHT22;10274;49.022;9.338;2024-03-02T14:19:50;20.70;1.00
20231;DHT22;10274;49.022;9.338;2024-03-02T14:22:17;20.60;1.00
20231;DHT22;10274;49.022;9.338;2024-03-02T14:24:44;20.60;1.00
20231;DHT22;10274;49.022;9.338;2024-03-02T14:27:12;20.50;1.00
20231;DHT22;10274;49.022;9.338;2024-03-02T14:29:40;21.30;1.00
20231;DHT22;10274;49.022;9.338;2024-03-02T14:32:07;21.40;1.00
20231;DHT22;10274;49.022;9.338;2024-03-02T14:34:33;20.30;1.00
20231;DHT22;10274;49.022;9.338;2024-03-02T14:37:00;21.00;1.00
20231;DHT22;10274;49.022;9.338;2024-03-02T14:39:28;20.80;1.00
20231;DHT22;10274;49.022;9.338;2024-03-02T14:41:55;20.90;99.90
20231;DHT22;10274;49.022;9.338;2024-03-02T14:44:23;20.80;99.90
20231;DHT22;10274;49.022;9.338;2024-03-02T14:46:49;20.70;99.90
20231;DHT22;10274;49.022;9.338;2024-03-02T14:49:17;21.80;99.90
20231;DHT22;10274;49.022;9.338;2024-03-02T14:51:44;20.90;99.90
20231;DHT22;10274;49.022;9.338;2024-03-02T14:54:11;20.30;99.90
20231;DHT22;10274;49.022;9.338;2024-03-02T14:56:37;19.80;99.90
20231;DHT22;10274;49.022;9.338;2024-03-02T14:59:04;19.50;99.90
20231;DHT22;10274;49.022;9.338;2024-03-02T15:01:32;19.90;99.90
20231;DHT22;10274;49.022;9.338;2024-03-02T15:03:59;19.70;1.00
20231;DHT22;10274;49.022;9.338;2024-03-02T15:06:26;18.80;99.90
20231;DHT22;10274;49.022;9.338;2024-03-02T15:08:53;19.00;99.90
20231;DHT22;10274;49.022;9.338;2024-03-02T15:11:20;19.70;99.90
20231;DHT22;10274;49.022;9.338;2024-03-02T15:13:47;19.90;99.90
20231;DHT22;10274;49.022;9.338;2024-03-02T15:16:14;19.40;99.90
20231;DHT22;10274;49.022;9.338;2024-03-02T15:18:42;18.90;99.90
20231;DHT22;10274;49.022;9.338;2024-03-02T15:21:08;18.40;99.90
20231;DHT22;10274;49.022;9.338;2024-03-02T15:23:35;18.20;99.90
20231;DHT22;10274;49.022;9.338;2024-03-02T15:26:02;18.40;99.90
20231;DHT22;10274;49.022;9.338;2024-03-02T15:28:29;18.20;99.90
20231;DHT22;10274;49.022;9.338;2024-03-02T15:30:55;18.10;99.90
20231;DHT22;10274;49.022;9.338;2024-03-02T15:33:22;18.20;1.00
20231;DHT22;10274;49.022;9.338;2024-03-02T15:35:52;17.90;99.90
20231;DHT22;10274;49.022;9.338;2024-03-02T15:38:19;17.80;99.90
20231;DHT22;10274;49.022;9.338;2024-03-02T15:40:45;17.50;99.90
20231;DHT22;10274;49.022;9.338;2024-03-02T15:43:12;17.50;99.90
20231;DHT22;10274;49.022;9.338;2024-03-02T15:45:39;17.30;99.90
20231;DHT22;10274;49.022;9.338;2024-03-02T15:48:06;17.20;1.00
20231;DHT22;10274;49.022;9.338;2024-03-02T15:50:33;16.90;1.00
20231;DHT22;10274;49.022;9.338;2024-03-02T15:53:03;16.70;1.00
20231;DHT22;10274;49.022;9.338;2024-03-02T15:55:31;16.70;1.00
20231;DHT22;10274;49.022;9.338;2024-03-02T15:57:59;16.50;1.00